sensor_id;sensor_type;location;lat;lon;timestamp;P1;durP1;ratioP1;P2;durP2;ratioP2
57087;SDS011;42965;52.846;6.614;2022-09-29T00:00:32;7.30;;;6.28;;
57087;SDS011;42965;52.846;6.614;2022-09-29T00:02:59;9.15;;;6.45;;
57087;SDS011;42965;52.846;6.614;2022-09-29T00:05:26;7.82;;;6.50;;
57087;SDS011;42965;52.846;6.614;2022-09-29T00:07:52;7.50;;;6.03;;
57087;SDS011;42965;52.846;6.614;2022-09-29T00:10:18;7.18;;;5.80;;
57087;SDS011;42965;52.846;6.614;2022-09-29T00:12:45;7.80;;;6.05;;
57087;SDS011;42965;52.846;6.614;2022-09-29T00:15:11;7.88;;;6.25;;
57087;SDS011;42965;52.846;6.614;2022-09-29T00:17:38;7.30;;;6.40;;
57087;SDS011;42965;52.846;6.614;2022-09-29T00:20:04;6.78;;;6.07;;
57087;SDS011;42965;52.846;6.614;2022-09-29T00:22:31;6.95;;;6.00;;
57087;SDS011;42965;52.846;6.614;2022-09-29T00:24:57;7.60;;;6.75;;
57087;SDS011;42965;52.846;6.614;2022-09-29T00:27:23;7.20;;;6.38;;
57087;SDS011;42965;52.846;6.614;2022-09-29T00:29:50;7.63;;;6.90;;
57087;SDS011;42965;52.846;6.614;2022-09-29T00:32:16;7.97;;;6.95;;
57087;SDS011;42965;52.846;6.614;2022-09-29T00:34:42;8.40;;;6.70;;
57087;SDS011;42965;52.846;6.614;2022-09-29T00:37:09;7.88;;;6.88;;
57087;SDS011;42965;52.846;6.614;2022-09-29T00:39:35;11.00;;;7.25;;
57087;SDS011;42965;52.846;6.614;2022-09-29T00:42:01;8.13;;;7.32;;
57087;SDS011;42965;52.846;6.614;2022-09-29T00:47:37;8.77;;;7.97;;
57087;SDS011;42965;52.846;6.614;2022-09-29T00:50:19;8.43;;;7.60;;
57087;SDS011;42965;52.846;6.614;2022-09-29T00:52:56;8.80;;;7.80;;
57087;SDS011;42965;52.846;6.614;2022-09-29T00:55:27;10.50;;;8.00;;
57087;SDS011;42965;52.846;6.614;2022-09-29T00:58:08;8.00;;;7.20;;
57087;SDS011;42965;52.846;6.614;2022-09-29T01:00:48;8.35;;;7.47;;
57087;SDS011;42965;52.846;6.614;2022-09-29T01:03:15;9.77;;;7.75;;
57087;SDS011;42965;52.846;6.614;2022-09-29T01:05:46;9.45;;;7.75;;
57087;SDS011;42965;52.846;6.614;2022-09-29T01:11:38;9.52;;;8.50;;
57087;SDS011;42965;52.846;6.614;2022-09-29T01:14:06;9.75;;;8.75;;
57087;SDS011;42965;52.846;6.614;2022-09-29T01:16:34;9.23;;;7.47;;
57087;SDS011;42965;52.846;6.614;2022-09-29T01:19:04;10.75;;;8.18;;
57087;SDS011;42965;52.846;6.614;2022-09-29T01:24:18;9.07;;;7.55;;
57087;SDS011;42965;52.846;6.614;2022-09-29T01:27:00;8.60;;;7.68;;
57087;SDS011;42965;52.846;6.614;2022-09-29T01:30:01;8.27;;;7.47;;
57087;SDS011;42965;52.846;6.614;2022-09-29T01:44:05;8.32;;;6.22;;
57087;SDS011;42965;52.846;6.614;2022-09-29T01:46:35;6.93;;;5.30;;
57087;SDS011;42965;52.846;6.614;2022-09-29T01:54:29;7.90;;;5.70;;
57087;SDS011;42965;52.846;6.614;2022-09-29T02:08:08;14.45;;;7.88;;
57087;SDS011;42965;52.846;6.614;2022-09-29T02:10:45;20.80;;;8.10;;
57087;SDS011;42965;52.846;6.614;2022-09-29T02:13:17;53.70;;;9.82;;
57087;SDS011;42965;52.846;6.614;2022-09-29T02:15:48;58.40;;;9.32;;
57087;SDS011;42965;52.846;6.614;2022-09-29T02:18:17;53.47;;;10.05;;
57087;SDS011;42965;52.846;6.614;2022-09-29T02:20:51;37.45;;;8.85;;
57087;SDS011;42965;52.846;6.614;2022-09-29T02:23:17;37.50;;;8.60;;
57087;SDS011;42965;52.846;6.614;2022-09-29T02:25:43;26.88;;;8.25;;
57087;SDS011;42965;52.846;6.614;2022-09-29T02:28:12;40.30;;;9.18;;
57087;SDS011;42965;52.846;6.614;2022-09-29T02:30:38;18.38;;;7.75;;
57087;SDS011;42965;52.846;6.614;2022-09-29T02:33:04;33.28;;;7.60;;
57087;SDS011;42965;52.846;6.614;2022-09-29T02:35:43;39.55;;;8.77;;
57087;SDS011;42965;52.846;6.614;2022-09-29T02:38:30;39.35;;;8.88;;
57087;SDS011;42965;52.846;6.614;2022-09-29T02:41:05;31.02;;;8.77;;
57087;SDS011;42965;52.846;6.614;2022-09-29T02:44:39;52.42;;;10.20;;
57087;SDS011;42965;52.846;6.614;2022-09-29T02:52:48;67.57;;;12.80;;
57087;SDS011;42965;52.846;6.614;2022-09-29T02:55:40;73.95;;;11.70;;
57087;SDS011;42965;52.846;6.614;2022-09-29T03:00:45;31.67;;;10.67;;
57087;SDS011;42965;52.846;6.614;2022-09-29T03:03:12;74.88;;;13.93;;
57087;SDS011;42965;52.846;6.614;2022-09-29T03:05:38;84.70;;;16.35;;
57087;SDS011;42965;52.846;6.614;2022-09-29T03:08:04;48.42;;;11.63;;
57087;SDS011;42965;52.846;6.614;2022-09-29T03:10:31;59.28;;;12.55;;
57087;SDS011;42965;52.846;6.614;2022-09-29T03:12:57;68.43;;;13.25;;
57087;SDS011;42965;52.846;6.614;2022-09-29T03:15:23;37.45;;;10.68;;
57087;SDS011;42965;52.846;6.614;2022-09-29T03:17:49;82.20;;;12.43;;
57087;SDS011;42965;52.846;6.614;2022-09-29T03:20:15;41.70;;;11.40;;
57087;SDS011;42965;52.846;6.614;2022-09-29T03:22:41;65.10;;;11.38;;
57087;SDS011;42965;52.846;6.614;2022-09-29T03:25:07;42.78;;;9.98;;
57087;SDS011;42965;52.846;6.614;2022-09-29T03:27:34;43.25;;;9.68;;
57087;SDS011;42965;52.846;6.614;2022-09-29T03:30:03;61.22;;;10.10;;
57087;SDS011;42965;52.846;6.614;2022-09-29T03:32:29;41.05;;;10.15;;
57087;SDS011;42965;52.846;6.614;2022-09-29T03:34:55;35.90;;;10.98;;
57087;SDS011;42965;52.846;6.614;2022-09-29T03:37:22;56.35;;;11.93;;
57087;SDS011;42965;52.846;6.614;2022-09-29T03:39:48;56.25;;;12.23;;
57087;SDS011;42965;52.846;6.614;2022-09-29T03:42:14;43.03;;;13.10;;
57087;SDS011;42965;52.846;6.614;2022-09-29T03:44:41;37.28;;;10.25;;
57087;SDS011;42965;52.846;6.614;2022-09-29T03:47:07;54.05;;;12.48;;
57087;SDS011;42965;52.846;6.614;2022-09-29T03:49:33;38.47;;;11.70;;
57087;SDS011;42965;52.846;6.614;2022-09-29T03:52:00;39.80;;;12.65;;
57087;SDS011;42965;52.846;6.614;2022-09-29T03:54:26;21.73;;;10.98;;
57087;SDS011;42965;52.846;6.614;2022-09-29T03:56:52;29.65;;;11.13;;
57087;SDS011;42965;52.846;6.614;2022-09-29T03:59:18;28.27;;;11.45;;
57087;SDS011;42965;52.846;6.614;2022-09-29T04:01:44;27.42;;;11.40;;
57087;SDS011;42965;52.846;6.614;2022-09-29T04:04:10;28.95;;;11.57;;
57087;SDS011;42965;52.846;6.614;2022-09-29T04:06:37;40.03;;;13.57;;
57087;SDS011;42965;52.846;6.614;2022-09-29T04:09:03;35.33;;;13.70;;
57087;SDS011;42965;52.846;6.614;2022-09-29T04:11:29;27.63;;;13.88;;
57087;SDS011;42965;52.846;6.614;2022-09-29T04:13:55;24.55;;;12.73;;
57087;SDS011;42965;52.846;6.614;2022-09-29T04:16:21;41.25;;;15.10;;
57087;SDS011;42965;52.846;6.614;2022-09-29T04:18:47;31.17;;;14.45;;
57087;SDS011;42965;52.846;6.614;2022-09-29T04:21:16;43.28;;;13.63;;
57087;SDS011;42965;52.846;6.614;2022-09-29T04:23:43;37.40;;;13.40;;
57087;SDS011;42965;52.846;6.614;2022-09-29T04:26:10;33.75;;;11.52;;
57087;SDS011;42965;52.846;6.614;2022-09-29T04:28:39;22.15;;;12.32;;
57087;SDS011;42965;52.846;6.614;2022-09-29T04:31:05;24.40;;;11.38;;
57087;SDS011;42965;52.846;6.614;2022-09-29T04:33:31;31.95;;;11.00;;
57087;SDS011;42965;52.846;6.614;2022-09-29T04:35:57;83.88;;;15.27;;
57087;SDS011;42965;52.846;6.614;2022-09-29T04:38:26;67.82;;;12.02;;
57087;SDS011;42965;52.846;6.614;2022-09-29T04:40:53;55.65;;;10.65;;
57087;SDS011;42965;52.846;6.614;2022-09-29T04:43:19;72.05;;;11.55;;
57087;SDS011;42965;52.846;6.614;2022-09-29T04:45:45;54.25;;;10.57;;
57087;SDS011;42965;52.846;6.614;2022-09-29T04:48:11;114.95;;;15.65;;
57087;SDS011;42965;52.846;6.614;2022-09-29T04:50:37;104.40;;;16.05;;
57087;SDS011;42965;52.846;6.614;2022-09-29T04:53:03;107.00;;;16.88;;
57087;SDS011;42965;52.846;6.614;2022-09-29T04:55:30;76.53;;;12.88;;
57087;SDS011;42965;52.846;6.614;2022-09-29T04:57:56;77.90;;;13.82;;
57087;SDS011;42965;52.846;6.614;2022-09-29T05:00:22;52.55;;;13.18;;
57087;SDS011;42965;52.846;6.614;2022-09-29T05:02:49;49.25;;;10.27;;
57087;SDS011;42965;52.846;6.614;2022-09-29T05:05:15;17.88;;;9.13;;
57087;SDS011;42965;52.846;6.614;2022-09-29T05:07:41;37.05;;;11.38;;
57087;SDS011;42965;52.846;6.614;2022-09-29T05:10:08;20.65;;;9.10;;
57087;SDS011;42965;52.846;6.614;2022-09-29T05:12:35;14.77;;;9.55;;
57087;SDS011;42965;52.846;6.614;2022-09-29T05:15:01;9.02;;;8.15;;
57087;SDS011;42965;52.846;6.614;2022-09-29T05:17:28;9.40;;;8.57;;
57087;SDS011;42965;52.846;6.614;2022-09-29T05:19:55;10.20;;;9.30;;
57087;SDS011;42965;52.846;6.614;2022-09-29T05:22:21;10.45;;;9.43;;
57087;SDS011;42965;52.846;6.614;2022-09-29T05:24:49;10.18;;;9.25;;
57087;SDS011;42965;52.846;6.614;2022-09-29T05:27:19;10.57;;;9.57;;
57087;SDS011;42965;52.846;6.614;2022-09-29T05:29:46;10.05;;;9.15;;
57087;SDS011;42965;52.846;6.614;2022-09-29T05:32:13;10.85;;;9.75;;
57087;SDS011;42965;52.846;6.614;2022-09-29T05:34:45;10.57;;;9.65;;
57087;SDS011;42965;52.846;6.614;2022-09-29T05:37:11;9.85;;;8.95;;
57087;SDS011;42965;52.846;6.614;2022-09-29T05:39:38;9.45;;;8.65;;
57087;SDS011;42965;52.846;6.614;2022-09-29T05:42:04;9.93;;;9.02;;
57087;SDS011;42965;52.846;6.614;2022-09-29T05:44:34;11.93;;;10.82;;
57087;SDS011;42965;52.846;6.614;2022-09-29T05:47:00;11.77;;;10.57;;
57087;SDS011;42965;52.846;6.614;2022-09-29T05:49:26;12.02;;;10.93;;
57087;SDS011;42965;52.846;6.614;2022-09-29T05:51:52;12.90;;;11.70;;
57087;SDS011;42965;52.846;6.614;2022-09-29T05:54:18;29.30;;;12.75;;
57087;SDS011;42965;52.846;6.614;2022-09-29T05:56:45;34.65;;;12.98;;
57087;SDS011;42965;52.846;6.614;2022-09-29T05:59:11;23.33;;;13.15;;
57087;SDS011;42965;52.846;6.614;2022-09-29T06:01:38;42.33;;;13.25;;
57087;SDS011;42965;52.846;6.614;2022-09-29T06:04:04;37.28;;;13.35;;
57087;SDS011;42965;52.846;6.614;2022-09-29T06:06:30;33.95;;;13.20;;
57087;SDS011;42965;52.846;6.614;2022-09-29T06:08:56;42.25;;;14.32;;
57087;SDS011;42965;52.846;6.614;2022-09-29T06:11:24;55.50;;;14.70;;
57087;SDS011;42965;52.846;6.614;2022-09-29T06:13:53;62.03;;;14.98;;
57087;SDS011;42965;52.846;6.614;2022-09-29T06:16:21;47.58;;;14.60;;
57087;SDS011;42965;52.846;6.614;2022-09-29T06:18:49;59.95;;;14.55;;
57087;SDS011;42965;52.846;6.614;2022-09-29T06:21:22;59.70;;;15.27;;
57087;SDS011;42965;52.846;6.614;2022-09-29T06:23:50;41.05;;;13.13;;
57087;SDS011;42965;52.846;6.614;2022-09-29T06:26:18;31.85;;;13.90;;
57087;SDS011;42965;52.846;6.614;2022-09-29T06:28:45;37.60;;;13.68;;
57087;SDS011;42965;52.846;6.614;2022-09-29T06:31:13;38.05;;;12.63;;
57087;SDS011;42965;52.846;6.614;2022-09-29T06:39:03;25.75;;;13.50;;
57087;SDS011;42965;52.846;6.614;2022-09-29T06:41:30;22.95;;;12.73;;
57087;SDS011;42965;52.846;6.614;2022-09-29T06:43:56;26.27;;;12.63;;
57087;SDS011;42965;52.846;6.614;2022-09-29T06:46:23;25.70;;;13.05;;
57087;SDS011;42965;52.846;6.614;2022-09-29T06:48:54;25.00;;;13.38;;
57087;SDS011;42965;52.846;6.614;2022-09-29T06:51:21;34.92;;;13.02;;
57087;SDS011;42965;52.846;6.614;2022-09-29T06:53:49;35.78;;;13.20;;
57087;SDS011;42965;52.846;6.614;2022-09-29T06:56:16;28.58;;;12.50;;
57087;SDS011;42965;52.846;6.614;2022-09-29T06:58:43;27.42;;;12.75;;
57087;SDS011;42965;52.846;6.614;2022-09-29T07:01:10;23.90;;;12.73;;
57087;SDS011;42965;52.846;6.614;2022-09-29T07:03:37;21.25;;;12.98;;
57087;SDS011;42965;52.846;6.614;2022-09-29T07:06:04;20.20;;;12.75;;
57087;SDS011;42965;52.846;6.614;2022-09-29T07:08:32;17.35;;;13.30;;
57087;SDS011;42965;52.846;6.614;2022-09-29T07:11:01;14.90;;;13.30;;
57087;SDS011;42965;52.846;6.614;2022-09-29T07:13:28;14.52;;;13.10;;
57087;SDS011;42965;52.846;6.614;2022-09-29T07:15:54;17.33;;;13.40;;
57087;SDS011;42965;52.846;6.614;2022-09-29T07:18:21;15.25;;;13.75;;
57087;SDS011;42965;52.846;6.614;2022-09-29T07:20:47;14.55;;;13.15;;
57087;SDS011;42965;52.846;6.614;2022-09-29T07:23:13;16.23;;;13.25;;
57087;SDS011;42965;52.846;6.614;2022-09-29T07:25:44;15.95;;;14.25;;
57087;SDS011;42965;52.846;6.614;2022-09-29T07:28:10;13.23;;;11.85;;
57087;SDS011;42965;52.846;6.614;2022-09-29T07:30:36;15.85;;;13.07;;
57087;SDS011;42965;52.846;6.614;2022-09-29T07:33:03;14.18;;;12.73;;
57087;SDS011;42965;52.846;6.614;2022-09-29T07:35:30;15.07;;;13.07;;
57087;SDS011;42965;52.846;6.614;2022-09-29T07:37:56;12.60;;;11.32;;
57087;SDS011;42965;52.846;6.614;2022-09-29T07:40:22;13.13;;;11.85;;
57087;SDS011;42965;52.846;6.614;2022-09-29T07:42:49;14.13;;;12.27;;
57087;SDS011;42965;52.846;6.614;2022-09-29T07:45:15;11.88;;;10.77;;
57087;SDS011;42965;52.846;6.614;2022-09-29T07:47:42;11.48;;;10.38;;
57087;SDS011;42965;52.846;6.614;2022-09-29T07:50:08;11.77;;;10.68;;
57087;SDS011;42965;52.846;6.614;2022-09-29T07:52:34;11.13;;;10.13;;
57087;SDS011;42965;52.846;6.614;2022-09-29T07:55:01;11.70;;;10.60;;
57087;SDS011;42965;52.846;6.614;2022-09-29T07:57:28;10.70;;;9.63;;
57087;SDS011;42965;52.846;6.614;2022-09-29T07:59:55;9.48;;;8.48;;
57087;SDS011;42965;52.846;6.614;2022-09-29T08:02:23;9.27;;;8.43;;
57087;SDS011;42965;52.846;6.614;2022-09-29T08:04:50;9.88;;;8.98;;
57087;SDS011;42965;52.846;6.614;2022-09-29T08:07:16;10.15;;;9.07;;
57087;SDS011;42965;52.846;6.614;2022-09-29T08:09:42;10.75;;;9.65;;
57087;SDS011;42965;52.846;6.614;2022-09-29T08:12:08;10.60;;;9.23;;
57087;SDS011;42965;52.846;6.614;2022-09-29T08:14:34;9.60;;;8.70;;
57087;SDS011;42965;52.846;6.614;2022-09-29T08:17:02;9.48;;;8.38;;
57087;SDS011;42965;52.846;6.614;2022-09-29T08:19:28;8.98;;;8.07;;
57087;SDS011;42965;52.846;6.614;2022-09-29T08:21:54;8.68;;;7.88;;
57087;SDS011;42965;52.846;6.614;2022-09-29T08:24:21;8.07;;;7.28;;
57087;SDS011;42965;52.846;6.614;2022-09-29T08:26:47;8.75;;;7.68;;
57087;SDS011;42965;52.846;6.614;2022-09-29T08:29:13;9.02;;;7.20;;
57087;SDS011;42965;52.846;6.614;2022-09-29T08:31:40;7.97;;;7.25;;
57087;SDS011;42965;52.846;6.614;2022-09-29T08:34:08;9.30;;;8.35;;
57087;SDS011;42965;52.846;6.614;2022-09-29T08:36:35;7.57;;;6.60;;
57087;SDS011;42965;52.846;6.614;2022-09-29T08:39:01;7.53;;;6.72;;
57087;SDS011;42965;52.846;6.614;2022-09-29T08:44:03;9.60;;;7.85;;
57087;SDS011;42965;52.846;6.614;2022-09-29T08:46:38;7.13;;;6.43;;
57087;SDS011;42965;52.846;6.614;2022-09-29T08:49:31;8.18;;;7.30;;
57087;SDS011;42965;52.846;6.614;2022-09-29T08:52:12;7.93;;;7.15;;
57087;SDS011;42965;52.846;6.614;2022-09-29T08:57:41;7.63;;;6.93;;
57087;SDS011;42965;52.846;6.614;2022-09-29T09:00:11;8.33;;;7.53;;
57087;SDS011;42965;52.846;6.614;2022-09-29T09:11:17;7.63;;;6.93;;
57087;SDS011;42965;52.846;6.614;2022-09-29T09:14:16;7.70;;;6.97;;
57087;SDS011;42965;52.846;6.614;2022-09-29T09:16:50;7.20;;;6.50;;
57087;SDS011;42965;52.846;6.614;2022-09-29T09:27:45;6.80;;;6.00;;
57087;SDS011;42965;52.846;6.614;2022-09-29T09:30:23;7.00;;;6.00;;
57087;SDS011;42965;52.846;6.614;2022-09-29T09:32:55;7.65;;;5.88;;
57087;SDS011;42965;52.846;6.614;2022-09-29T09:38:21;6.28;;;5.68;;
57087;SDS011;42965;52.846;6.614;2022-09-29T09:40:54;7.13;;;5.10;;
57087;SDS011;42965;52.846;6.614;2022-09-29T09:43:30;6.30;;;5.70;;
57087;SDS011;42965;52.846;6.614;2022-09-29T09:48:42;5.85;;;5.07;;
57087;SDS011;42965;52.846;6.614;2022-09-29T09:53:49;7.15;;;5.05;;
57087;SDS011;42965;52.846;6.614;2022-09-29T09:59:14;4.97;;;3.85;;
57087;SDS011;42965;52.846;6.614;2022-09-29T10:01:59;4.80;;;3.67;;
57087;SDS011;42965;52.846;6.614;2022-09-29T10:04:25;6.20;;;4.43;;
57087;SDS011;42965;52.846;6.614;2022-09-29T10:06:52;4.32;;;3.85;;
57087;SDS011;42965;52.846;6.614;2022-09-29T10:09:19;4.45;;;3.97;;
57087;SDS011;42965;52.846;6.614;2022-09-29T10:11:45;6.20;;;4.43;;
57087;SDS011;42965;52.846;6.614;2022-09-29T10:14:13;5.63;;;4.18;;
57087;SDS011;42965;52.846;6.614;2022-09-29T10:16:52;5.53;;;4.32;;
57087;SDS011;42965;52.846;6.614;2022-09-29T10:19:20;5.05;;;4.32;;
57087;SDS011;42965;52.846;6.614;2022-09-29T10:22:13;4.82;;;3.75;;
57087;SDS011;42965;52.846;6.614;2022-09-29T10:24:43;5.13;;;4.63;;
57087;SDS011;42965;52.846;6.614;2022-09-29T10:27:19;5.80;;;4.57;;
57087;SDS011;42965;52.846;6.614;2022-09-29T10:29:50;6.00;;;5.32;;
57087;SDS011;42965;52.846;6.614;2022-09-29T10:32:25;6.80;;;5.10;;
57087;SDS011;42965;52.846;6.614;2022-09-29T10:35:08;7.57;;;4.93;;
57087;SDS011;42965;52.846;6.614;2022-09-29T10:41:01;4.40;;;3.97;;
57087;SDS011;42965;52.846;6.614;2022-09-29T10:43:38;6.07;;;4.28;;
57087;SDS011;42965;52.846;6.614;2022-09-29T10:54:14;4.65;;;2.90;;
57087;SDS011;42965;52.846;6.614;2022-09-29T10:56:45;3.95;;;3.30;;
57087;SDS011;42965;52.846;6.614;2022-09-29T10:59:14;4.80;;;3.90;;
57087;SDS011;42965;52.846;6.614;2022-09-29T11:01:43;4.43;;;2.92;;
57087;SDS011;42965;52.846;6.614;2022-09-29T11:04:25;3.83;;;3.10;;
57087;SDS011;42965;52.846;6.614;2022-09-29T11:07:03;5.10;;;3.30;;
57087;SDS011;42965;52.846;6.614;2022-09-29T11:09:41;5.22;;;3.60;;
57087;SDS011;42965;52.846;6.614;2022-09-29T11:14:59;3.33;;;2.97;;
57087;SDS011;42965;52.846;6.614;2022-09-29T11:17:36;4.93;;;3.55;;
57087;SDS011;42965;52.846;6.614;2022-09-29T11:20:04;4.97;;;3.47;;
57087;SDS011;42965;52.846;6.614;2022-09-29T11:22:50;3.65;;;3.15;;
57087;SDS011;42965;52.846;6.614;2022-09-29T11:28:17;4.15;;;3.30;;
57087;SDS011;42965;52.846;6.614;2022-09-29T11:30:53;3.83;;;3.40;;
57087;SDS011;42965;52.846;6.614;2022-09-29T11:33:44;3.75;;;3.00;;
57087;SDS011;42965;52.846;6.614;2022-09-29T11:36:37;4.18;;;2.83;;
57087;SDS011;42965;52.846;6.614;2022-09-29T11:39:32;3.50;;;3.00;;
57087;SDS011;42965;52.846;6.614;2022-09-29T11:45:03;3.35;;;2.03;;
57087;SDS011;42965;52.846;6.614;2022-09-29T12:07:02;1.38;;;0.98;;
57087;SDS011;42965;52.846;6.614;2022-09-29T12:12:12;1.20;;;0.57;;
57087;SDS011;42965;52.846;6.614;2022-09-29T12:17:30;0.70;;;0.50;;
57087;SDS011;42965;52.846;6.614;2022-09-29T12:22:41;1.75;;;1.40;;
57087;SDS011;42965;52.846;6.614;2022-09-29T12:25:20;4.13;;;1.50;;
57087;SDS011;42965;52.846;6.614;2022-09-29T12:27:53;2.50;;;1.52;;
57087;SDS011;42965;52.846;6.614;2022-09-29T12:30:25;2.25;;;1.35;;
57087;SDS011;42965;52.846;6.614;2022-09-29T12:42:30;4.40;;;2.08;;
57087;SDS011;42965;52.846;6.614;2022-09-29T12:50:26;2.22;;;1.23;;
57087;SDS011;42965;52.846;6.614;2022-09-29T12:53:31;2.45;;;1.30;;
57087;SDS011;42965;52.846;6.614;2022-09-29T12:56:05;1.42;;;0.95;;
57087;SDS011;42965;52.846;6.614;2022-09-29T13:09:57;1.55;;;1.05;;
57087;SDS011;42965;52.846;6.614;2022-09-29T13:23:07;1.70;;;1.20;;
57087;SDS011;42965;52.846;6.614;2022-09-29T13:25:49;6.20;;;1.60;;
57087;SDS011;42965;52.846;6.614;2022-09-29T13:30:58;3.03;;;1.80;;
57087;SDS011;42965;52.846;6.614;2022-09-29T13:33:28;3.55;;;1.42;;
57087;SDS011;42965;52.846;6.614;2022-09-29T13:35:55;2.70;;;1.80;;
57087;SDS011;42965;52.846;6.614;2022-09-29T13:38:23;3.00;;;1.90;;
57087;SDS011;42965;52.846;6.614;2022-09-29T13:49:41;2.30;;;1.48;;
57087;SDS011;42965;52.846;6.614;2022-09-29T13:51:46;3.50;;;1.45;;
57087;SDS011;42965;52.846;6.614;2022-09-29T13:59:59;1.40;;;0.93;;
57087;SDS011;42965;52.846;6.614;2022-09-29T14:02:39;3.97;;;1.58;;
57087;SDS011;42965;52.846;6.614;2022-09-29T14:08:06;1.40;;;1.10;;
57087;SDS011;42965;52.846;6.614;2022-09-29T14:10:50;1.80;;;1.10;;
57087;SDS011;42965;52.846;6.614;2022-09-29T14:13:33;2.20;;;1.00;;
57087;SDS011;42965;52.846;6.614;2022-09-29T14:24:51;2.13;;;1.38;;
57087;SDS011;42965;52.846;6.614;2022-09-29T14:30:03;2.28;;;1.10;;
57087;SDS011;42965;52.846;6.614;2022-09-29T14:32:52;2.67;;;1.30;;
57087;SDS011;42965;52.846;6.614;2022-09-29T14:35:27;2.80;;;1.40;;
57087;SDS011;42965;52.846;6.614;2022-09-29T14:38:18;3.78;;;1.20;;
57087;SDS011;42965;52.846;6.614;2022-09-29T14:40:53;2.38;;;1.10;;
57087;SDS011;42965;52.846;6.614;2022-09-29T14:52:27;1.77;;;0.80;;
57087;SDS011;42965;52.846;6.614;2022-09-29T15:00:42;0.65;;;0.65;;
57087;SDS011;42965;52.846;6.614;2022-09-29T15:03:30;1.63;;;0.60;;
57087;SDS011;42965;52.846;6.614;2022-09-29T15:06:12;2.67;;;0.80;;
57087;SDS011;42965;52.846;6.614;2022-09-29T15:08:53;1.27;;;0.80;;
57087;SDS011;42965;52.846;6.614;2022-09-29T15:11:26;2.72;;;0.70;;
57087;SDS011;42965;52.846;6.614;2022-09-29T15:16:55;0.98;;;0.70;;
57087;SDS011;42965;52.846;6.614;2022-09-29T15:27:56;3.05;;;0.98;;
57087;SDS011;42965;52.846;6.614;2022-09-29T15:30:45;1.75;;;1.45;;
57087;SDS011;42965;52.846;6.614;2022-09-29T15:33:16;2.45;;;1.10;;
57087;SDS011;42965;52.846;6.614;2022-09-29T15:41:30;2.22;;;1.45;;
57087;SDS011;42965;52.846;6.614;2022-09-29T15:43:59;2.78;;;1.80;;
57087;SDS011;42965;52.846;6.614;2022-09-29T15:51:29;2.58;;;1.50;;
57087;SDS011;42965;52.846;6.614;2022-09-29T15:53:56;1.80;;;1.10;;
57087;SDS011;42965;52.846;6.614;2022-09-29T15:56:25;2.10;;;1.80;;
57087;SDS011;42965;52.846;6.614;2022-09-29T15:58:51;2.50;;;1.58;;
57087;SDS011;42965;52.846;6.614;2022-09-29T16:01:18;3.33;;;1.88;;
57087;SDS011;42965;52.846;6.614;2022-09-29T16:03:52;4.43;;;2.63;;
57087;SDS011;42965;52.846;6.614;2022-09-29T16:06:32;4.60;;;2.90;;
57087;SDS011;42965;52.846;6.614;2022-09-29T16:09:04;5.70;;;3.13;;
57087;SDS011;42965;52.846;6.614;2022-09-29T16:11:40;7.60;;;3.17;;
57087;SDS011;42965;52.846;6.614;2022-09-29T16:16:45;7.57;;;3.97;;
57087;SDS011;42965;52.846;6.614;2022-09-29T16:21:52;6.38;;;3.28;;
57087;SDS011;42965;52.846;6.614;2022-09-29T16:24:22;4.40;;;2.50;;
57087;SDS011;42965;52.846;6.614;2022-09-29T16:26:52;4.88;;;3.28;;
57087;SDS011;42965;52.846;6.614;2022-09-29T16:29:30;5.22;;;3.00;;
57087;SDS011;42965;52.846;6.614;2022-09-29T16:31:59;5.05;;;2.40;;
57087;SDS011;42965;52.846;6.614;2022-09-29T16:34:45;3.47;;;2.30;;
57087;SDS011;42965;52.846;6.614;2022-09-29T16:37:15;4.80;;;2.10;;
57087;SDS011;42965;52.846;6.614;2022-09-29T16:39:43;5.25;;;1.55;;
57087;SDS011;42965;52.846;6.614;2022-09-29T16:42:22;2.20;;;1.40;;
57087;SDS011;42965;52.846;6.614;2022-09-29T16:44:51;3.42;;;2.05;;
57087;SDS011;42965;52.846;6.614;2022-09-29T16:47:23;2.67;;;1.73;;
57087;SDS011;42965;52.846;6.614;2022-09-29T16:49:52;2.60;;;1.55;;
57087;SDS011;42965;52.846;6.614;2022-09-29T16:54:54;3.92;;;1.60;;
57087;SDS011;42965;52.846;6.614;2022-09-29T16:57:32;2.35;;;1.58;;
57087;SDS011;42965;52.846;6.614;2022-09-29T16:59:59;5.05;;;1.67;;
57087;SDS011;42965;52.846;6.614;2022-09-29T17:02:31;2.80;;;1.67;;
57087;SDS011;42965;52.846;6.614;2022-09-29T17:04:58;3.78;;;1.88;;
57087;SDS011;42965;52.846;6.614;2022-09-29T17:07:28;3.63;;;2.30;;
57087;SDS011;42965;52.846;6.614;2022-09-29T17:09:56;3.33;;;1.85;;
57087;SDS011;42965;52.846;6.614;2022-09-29T17:12:24;4.28;;;2.03;;
57087;SDS011;42965;52.846;6.614;2022-09-29T17:14:53;3.80;;;1.83;;
57087;SDS011;42965;52.846;6.614;2022-09-29T17:17:20;4.18;;;2.00;;
57087;SDS011;42965;52.846;6.614;2022-09-29T17:19:49;2.50;;;1.88;;
57087;SDS011;42965;52.846;6.614;2022-09-29T17:22:24;3.88;;;2.25;;
57087;SDS011;42965;52.846;6.614;2022-09-29T17:24:51;4.07;;;1.90;;
57087;SDS011;42965;52.846;6.614;2022-09-29T17:27:17;5.25;;;2.08;;
57087;SDS011;42965;52.846;6.614;2022-09-29T17:30:03;3.30;;;2.35;;
57087;SDS011;42965;52.846;6.614;2022-09-29T17:32:30;3.25;;;2.03;;
57087;SDS011;42965;52.846;6.614;2022-09-29T17:34:56;3.58;;;2.17;;
57087;SDS011;42965;52.846;6.614;2022-09-29T17:37:22;2.47;;;1.80;;
57087;SDS011;42965;52.846;6.614;2022-09-29T17:39:49;3.78;;;2.00;;
57087;SDS011;42965;52.846;6.614;2022-09-29T17:42:15;10.02;;;2.00;;
57087;SDS011;42965;52.846;6.614;2022-09-29T17:44:41;3.50;;;2.22;;
57087;SDS011;42965;52.846;6.614;2022-09-29T17:47:11;17.77;;;14.07;;
57087;SDS011;42965;52.846;6.614;2022-09-29T17:49:41;10.60;;;9.45;;
57087;SDS011;42965;52.846;6.614;2022-09-29T17:52:08;8.05;;;6.82;;
57087;SDS011;42965;52.846;6.614;2022-09-29T17:54:40;5.43;;;4.57;;
57087;SDS011;42965;52.846;6.614;2022-09-29T17:57:07;3.63;;;2.47;;
57087;SDS011;42965;52.846;6.614;2022-09-29T17:59:43;3.58;;;2.20;;
57087;SDS011;42965;52.846;6.614;2022-09-29T18:02:13;2.53;;;1.88;;
57087;SDS011;42965;52.846;6.614;2022-09-29T18:04:40;3.92;;;2.50;;
57087;SDS011;42965;52.846;6.614;2022-09-29T18:07:12;4.70;;;2.15;;
57087;SDS011;42965;52.846;6.614;2022-09-29T18:09:39;3.22;;;2.08;;
57087;SDS011;42965;52.846;6.614;2022-09-29T18:12:06;4.18;;;2.17;;
57087;SDS011;42965;52.846;6.614;2022-09-29T18:14:32;2.92;;;1.98;;
57087;SDS011;42965;52.846;6.614;2022-09-29T18:17:00;3.53;;;2.13;;
57087;SDS011;42965;52.846;6.614;2022-09-29T18:19:31;3.38;;;2.28;;
57087;SDS011;42965;52.846;6.614;2022-09-29T18:22:00;3.72;;;2.63;;
57087;SDS011;42965;52.846;6.614;2022-09-29T18:24:30;5.10;;;2.60;;
57087;SDS011;42965;52.846;6.614;2022-09-29T18:26:57;4.25;;;2.58;;
57087;SDS011;42965;52.846;6.614;2022-09-29T18:29:23;5.13;;;3.42;;
57087;SDS011;42965;52.846;6.614;2022-09-29T18:31:49;4.32;;;3.65;;
57087;SDS011;42965;52.846;6.614;2022-09-29T18:34:17;5.32;;;3.28;;
57087;SDS011;42965;52.846;6.614;2022-09-29T18:36:44;4.43;;;3.10;;
57087;SDS011;42965;52.846;6.614;2022-09-29T18:39:14;5.60;;;3.53;;
57087;SDS011;42965;52.846;6.614;2022-09-29T18:41:40;4.47;;;3.38;;
57087;SDS011;42965;52.846;6.614;2022-09-29T18:44:13;4.72;;;3.40;;
57087;SDS011;42965;52.846;6.614;2022-09-29T18:46:42;4.57;;;3.33;;
57087;SDS011;42965;52.846;6.614;2022-09-29T18:49:12;5.63;;;4.20;;
57087;SDS011;42965;52.846;6.614;2022-09-29T18:51:39;5.07;;;3.65;;
57087;SDS011;42965;52.846;6.614;2022-09-29T18:54:05;4.90;;;3.35;;
57087;SDS011;42965;52.846;6.614;2022-09-29T18:56:32;5.03;;;3.22;;
57087;SDS011;42965;52.846;6.614;2022-09-29T18:58:58;5.60;;;4.00;;
57087;SDS011;42965;52.846;6.614;2022-09-29T19:01:25;6.00;;;3.40;;